Time;durP1;ratioP1;P1;durP2;ratioP2;P2;SDS_P1;SDS_P2;PMS_P1;PMS_P2;Temp;Humidity;BMP_temperature;BMP_pressure;BME280_temperature;BME280_humidity;BME280_pressure;Samples;Min_cycle;Max_cycle;Signal;HPM_P1;HPM_P2
2021/12/18 00:00:22;;;;;;;9.23;2.73;;;10.80;99.90;;;;;;5121651;27;20600;-66
2021/12/18 00:03:09;;;;;;;6.57;2.60;;;10.80;99.90;;;;;;5107236;28;20180;-67
2021/12/18 00:05:56;;;;;;;9.13;2.80;;;10.90;99.90;;;;;;5121532;27;20180;-68
2021/12/18 00:08:43;;;;;;;5.33;2.47;;;10.90;99.90;;;;;;5101463;28;20220;-67
2021/12/18 00:11:30;;;;;;;8.83;2.50;;;10.80;99.90;;;;;;5108318;27;20181;-67
2021/12/18 00:14:17;;;;;;;7.57;2.30;;;10.80;99.90;;;;;;5103526;28;20187;-67
2021/12/18 00:17:04;;;;;;;13.53;3.30;;;10.80;99.90;;;;;;5116746;27;20315;-66
2021/12/18 00:19:51;;;;;;;9.40;2.50;;;10.80;99.90;;;;;;5117996;27;20751;-67
2021/12/18 00:22:37;;;;;;;5.10;2.80;;;10.70;99.90;;;;;;5116590;27;20185;-67
2021/12/18 00:25:24;;;;;;;9.83;2.87;;;10.60;99.90;;;;;;5110534;27;20189;-68
2021/12/18 00:28:12;;;;;;;9.90;2.60;;;10.60;99.90;;;;;;5109207;27;20220;-66
2021/12/18 00:30:58;;;;;;;18.73;3.23;;;10.60;99.90;;;;;;5117420;27;20216;-67
2021/12/18 00:33:45;;;;;;;9.67;2.40;;;10.50;99.90;;;;;;5121895;27;20211;-68
2021/12/18 00:36:31;;;;;;;8.30;2.53;;;10.50;99.90;;;;;;5123749;27;20188;-67
2021/12/18 00:39:18;;;;;;;5.80;2.37;;;10.50;99.90;;;;;;5112790;27;20201;-66
2021/12/18 00:42:25;;;;;;;9.83;2.47;;;10.50;99.90;;;;;;5115590;27;20763;-66
2021/12/18 00:45:15;;;;;;;9.50;2.50;;;10.50;99.90;;;;;;5105729;27;20679;-66
2021/12/18 00:48:02;;;;;;;5.30;3.03;;;10.40;99.90;;;;;;5122145;27;20300;-68
2021/12/18 00:50:50;;;;;;;9.00;3.20;;;10.40;99.90;;;;;;5115689;27;20246;-68
2021/12/18 00:53:36;;;;;;;7.20;2.23;;;10.30;99.90;;;;;;5118965;27;20185;-68
2021/12/18 00:56:24;;;;;;;4.40;2.30;;;10.30;99.90;;;;;;5106405;27;20812;-68
2021/12/18 00:59:10;;;;;;;6.60;2.30;;;10.20;99.90;;;;;;5116174;27;20196;-67
2021/12/18 01:01:57;;;;;;;5.47;2.53;;;10.10;99.90;;;;;;5113697;27;20257;-66
2021/12/18 01:04:43;;;;;;;6.60;2.47;;;10.10;99.90;;;;;;5121889;27;20860;-67
2021/12/18 01:07:30;;;;;;;6.63;2.50;;;10.10;99.90;;;;;;5117194;27;20651;-67
2021/12/18 01:10:45;;;;;;;5.47;2.60;;;10.10;99.90;;;;;;5118781;27;20188;-68
2021/12/18 01:13:37;;;;;;;7.40;2.60;;;10.10;99.90;;;;;;5115645;27;20223;-66
2021/12/18 01:16:34;;;;;;;5.33;2.10;;;10.10;99.90;;;;;;5106095;27;20189;-67
2021/12/18 01:22:48;;;;;;;7.97;2.50;;;10.10;99.90;;;;;;5114853;27;20194;-67
2021/12/18 01:25:34;;;;;;;6.77;2.20;;;10.10;99.90;;;;;;5100510;27;20181;-66
2021/12/18 01:28:22;;;;;;;6.77;2.73;;;10.00;99.90;;;;;;5115899;27;20570;-68
2021/12/18 01:31:09;;;;;;;5.30;2.17;;;10.00;99.90;;;;;;5129186;27;20184;-68
2021/12/18 01:33:56;;;;;;;8.40;2.67;;;10.00;99.90;;;;;;5123291;27;20188;-66
2021/12/18 01:36:43;;;;;;;9.77;2.33;;;10.00;99.90;;;;;;5107182;27;20644;-68
2021/12/18 01:39:30;;;;;;;5.63;2.10;;;10.00;99.90;;;;;;5104254;27;20193;-66
2021/12/18 01:45:30;;;;;;;6.23;2.40;;;10.00;99.90;;;;;;5109392;27;20254;-66
2021/12/18 01:51:32;;;;;;;4.97;2.37;;;10.00;99.90;;;;;;5113736;27;20195;-66
2021/12/18 01:54:19;;;;;;;9.23;2.10;;;10.00;99.90;;;;;;5101604;27;20189;-68
2021/12/18 01:57:06;;;;;;;3.73;2.30;;;10.00;99.90;;;;;;5115797;27;20919;-67
2021/12/18 01:59:52;;;;;;;5.57;2.13;;;10.10;99.90;;;;;;5112073;27;20208;-66
2021/12/18 02:02:39;;;;;;;6.47;2.13;;;10.10;99.90;;;;;;5110250;27;20189;-68
2021/12/18 02:05:27;;;;;;;6.80;2.67;;;10.10;99.90;;;;;;5121104;27;20181;-67
2021/12/18 02:08:18;;;;;;;11.00;2.80;;;10.20;99.90;;;;;;5115497;27;20215;-67
2021/12/18 02:11:29;;;;;;;9.87;2.63;;;10.20;99.90;;;;;;5115170;27;20192;-67
2021/12/18 02:23:23;;;;;;;8.50;2.70;;;10.20;99.90;;;;;;5110115;27;20936;-68
2021/12/18 02:26:10;;;;;;;12.50;2.60;;;10.20;99.90;;;;;;5122511;27;21002;-66
2021/12/18 02:28:59;;;;;;;11.43;2.80;;;10.20;99.90;;;;;;5122049;27;20568;-66
2021/12/18 02:31:46;;;;;;;12.97;2.70;;;10.20;99.90;;;;;;5119750;27;20254;-68
2021/12/18 02:34:37;;;;;;;7.40;2.77;;;10.20;99.90;;;;;;5114116;27;20632;-67
2021/12/18 02:37:28;;;;;;;7.70;2.70;;;10.20;99.90;;;;;;5113533;27;20193;-67
2021/12/18 02:40:52;;;;;;;5.70;2.90;;;10.20;99.90;;;;;;5112809;27;20648;-67
2021/12/18 02:43:41;;;;;;;13.77;3.27;;;10.20;99.90;;;;;;5112807;27;20286;-68
2021/12/18 02:46:28;;;;;;;5.70;2.90;;;10.20;99.90;;;;;;5112265;27;20184;-66
2021/12/18 02:49:16;;;;;;;6.23;2.80;;;10.20;99.90;;;;;;5119639;27;20271;-67
2021/12/18 02:52:04;;;;;;;7.00;2.83;;;10.20;99.90;;;;;;5115791;27;20188;-68
2021/12/18 02:54:50;;;;;;;8.07;2.80;;;10.20;99.90;;;;;;5112568;27;20300;-67
2021/12/18 02:57:37;;;;;;;6.13;2.43;;;10.10;99.90;;;;;;5108983;27;20223;-66
2021/12/18 03:00:26;;;;;;;4.53;2.53;;;10.10;99.90;;;;;;5119714;27;20621;-68
2021/12/18 03:03:15;;;;;;;11.33;3.00;;;10.00;99.90;;;;;;5111497;27;20297;-67
2021/12/18 03:27:38;;;;;;;13.70;3.03;;;9.90;99.90;;;;;;5075474;28;20225;-66
2021/12/18 03:30:26;;;;;;;11.37;2.60;;;9.90;99.90;;;;;;5075146;28;20198;-67
2021/12/18 03:33:13;;;;;;;7.07;3.03;;;9.90;99.90;;;;;;5113898;27;20671;-67
2021/12/18 03:36:00;;;;;;;12.73;2.93;;;9.90;99.90;;;;;;5096542;27;20931;-68
2021/12/18 03:38:46;;;;;;;6.57;2.90;;;10.00;99.90;;;;;;5103092;27;20277;-66
2021/12/18 03:41:33;;;;;;;8.27;2.73;;;10.00;99.90;;;;;;5108967;27;20271;-67
2021/12/18 03:44:21;;;;;;;6.83;2.77;;;9.90;99.90;;;;;;5090687;28;20201;-68
2021/12/18 03:47:08;;;;;;;7.20;2.63;;;10.00;99.90;;;;;;5104293;27;20221;-68
2021/12/18 03:49:55;;;;;;;6.17;2.87;;;9.90;99.90;;;;;;5117041;27;20193;-67
2021/12/18 03:52:42;;;;;;;4.90;2.20;;;9.90;99.90;;;;;;5116971;27;20380;-67
2021/12/18 03:55:28;;;;;;;6.00;2.67;;;9.90;99.90;;;;;;5118163;27;20314;-67
2021/12/18 03:58:15;;;;;;;5.87;2.53;;;9.90;99.90;;;;;;5091640;27;20402;-68
2021/12/18 04:01:02;;;;;;;6.80;2.47;;;10.00;99.90;;;;;;5103600;27;20303;-68
2021/12/18 04:03:48;;;;;;;5.70;2.63;;;10.00;99.90;;;;;;5117739;27;20201;-67
2021/12/18 04:06:39;;;;;;;4.87;2.57;;;9.90;99.90;;;;;;5115092;27;20192;-68
2021/12/18 04:09:28;;;;;;;7.90;2.53;;;9.90;99.90;;;;;;5102379;27;20694;-68
2021/12/18 04:12:16;;;;;;;4.80;2.40;;;9.90;99.90;;;;;;5110412;28;20380;-67
2021/12/18 04:15:04;;;;;;;5.30;2.23;;;9.90;99.90;;;;;;5116653;28;20195;-66
2021/12/18 04:17:51;;;;;;;5.43;2.30;;;9.90;99.90;;;;;;5109790;27;20200;-66
2021/12/18 04:20:37;;;;;;;8.63;2.53;;;9.90;99.90;;;;;;5117251;28;20192;-66
2021/12/18 04:23:24;;;;;;;5.60;2.30;;;9.90;99.90;;;;;;5098899;28;20276;-68
2021/12/18 04:26:11;;;;;;;8.97;2.70;;;9.90;99.90;;;;;;5103672;28;20192;-67
2021/12/18 04:28:57;;;;;;;7.07;2.50;;;9.90;99.90;;;;;;5113169;28;20441;-66
2021/12/18 04:31:44;;;;;;;5.00;2.37;;;9.90;99.90;;;;;;5098758;28;20192;-67
2021/12/18 04:34:31;;;;;;;8.50;2.33;;;9.90;99.90;;;;;;5113198;28;20629;-67
2021/12/18 04:37:17;;;;;;;6.83;2.60;;;10.00;99.90;;;;;;5117039;28;20185;-68
2021/12/18 04:40:05;;;;;;;5.73;2.30;;;9.90;99.90;;;;;;5112090;28;20245;-66
2021/12/18 04:42:53;;;;;;;6.07;2.10;;;9.90;99.90;;;;;;5093255;28;20181;-67
2021/12/18 04:45:40;;;;;;;7.10;2.20;;;9.90;99.90;;;;;;5117644;28;20204;-67
2021/12/18 04:48:27;;;;;;;7.80;2.00;;;9.80;99.90;;;;;;5114200;27;20208;-68
2021/12/18 04:51:13;;;;;;;4.60;2.00;;;9.90;99.90;;;;;;5115747;27;20177;-67
2021/12/18 04:54:00;;;;;;;5.67;2.13;;;10.00;99.90;;;;;;5115200;28;20373;-66
2021/12/18 04:56:46;;;;;;;6.17;2.07;;;10.00;99.90;;;;;;5108974;28;20193;-67
2021/12/18 04:59:33;;;;;;;4.17;2.10;;;10.10;99.90;;;;;;5102536;28;20192;-68
2021/12/18 05:02:23;;;;;;;8.10;2.20;;;10.10;99.90;;;;;;5105921;27;20202;-66
2021/12/18 05:05:15;;;;;;;6.97;2.00;;;10.20;99.90;;;;;;5102105;27;20184;-67
2021/12/18 05:08:03;;;;;;;3.17;2.10;;;10.20;99.90;;;;;;5110531;27;20216;-67
2021/12/18 05:10:50;;;;;;;6.17;2.50;;;10.20;99.90;;;;;;5099432;27;20185;-67
2021/12/18 05:13:38;;;;;;;8.17;2.30;;;10.20;99.90;;;;;;5101251;28;20181;-67
2021/12/18 05:16:24;;;;;;;4.97;2.10;;;10.10;99.90;;;;;;5105315;27;20659;-66
2021/12/18 05:19:11;;;;;;;5.83;2.47;;;10.10;99.90;;;;;;5117015;27;20271;-67
2021/12/18 05:21:57;;;;;;;4.27;2.23;;;10.10;99.90;;;;;;5099687;27;21194;-67
2021/12/18 05:24:44;;;;;;;3.17;2.00;;;10.00;99.90;;;;;;5118606;27;20211;-67
2021/12/18 05:27:31;;;;;;;5.33;2.43;;;10.00;99.90;;;;;;5112547;27;20216;-66
2021/12/18 05:30:18;;;;;;;6.07;2.30;;;10.00;99.90;;;;;;5118204;27;20261;-64
2021/12/18 05:33:05;;;;;;;2.90;1.70;;;9.90;99.90;;;;;;5102408;28;20181;-64
2021/12/18 05:35:52;;;;;;;6.10;2.87;;;9.90;99.90;;;;;;5095394;27;20196;-63
2021/12/18 05:38:38;;;;;;;4.83;2.30;;;9.80;99.90;;;;;;5108294;27;20656;-66
2021/12/18 05:41:25;;;;;;;4.43;2.30;;;9.90;99.90;;;;;;5124656;27;20229;-64
2021/12/18 05:44:12;;;;;;;8.27;2.87;;;9.80;99.90;;;;;;5111539;27;20271;-63
2021/12/18 05:46:58;;;;;;;6.10;2.40;;;9.80;99.90;;;;;;5120648;27;20239;-64
2021/12/18 05:49:45;;;;;;;6.97;2.53;;;9.80;99.90;;;;;;5105351;27;20195;-66
2021/12/18 05:52:32;;;;;;;5.87;2.30;;;9.80;99.90;;;;;;5105848;27;20184;-64
2021/12/18 05:55:22;;;;;;;7.40;2.80;;;9.80;99.90;;;;;;5102951;27;20181;-66
2021/12/18 05:58:09;;;;;;;5.23;2.40;;;9.80;99.90;;;;;;5108023;27;20188;-65
2021/12/18 06:00:56;;;;;;;6.63;2.60;;;9.90;99.90;;;;;;5108988;27;20701;-65
2021/12/18 06:03:43;;;;;;;9.67;3.40;;;9.90;99.90;;;;;;5116643;27;20573;-63
2021/12/18 06:06:30;;;;;;;9.07;2.63;;;10.00;99.90;;;;;;5122724;27;20838;-65
2021/12/18 06:09:17;;;;;;;4.43;2.77;;;10.00;99.90;;;;;;5113080;27;20567;-63
2021/12/18 06:12:05;;;;;;;13.53;2.90;;;10.10;99.90;;;;;;5088438;28;20754;-64
2021/12/18 06:14:52;;;;;;;8.67;2.57;;;10.10;99.90;;;;;;5115362;27;20181;-64
2021/12/18 06:17:39;;;;;;;7.80;2.43;;;10.20;99.90;;;;;;5089243;28;20266;-66
2021/12/18 06:20:28;;;;;;;6.07;2.80;;;10.30;99.90;;;;;;5119002;27;20565;-65
2021/12/18 06:23:15;;;;;;;6.83;3.03;;;10.40;99.90;;;;;;5114667;27;20413;-65
2021/12/18 06:26:02;;;;;;;7.87;2.70;;;10.40;99.90;;;;;;5121415;27;20210;-65
2021/12/18 06:28:49;;;;;;;7.17;3.03;;;10.50;99.90;;;;;;5123417;27;20560;-66
2021/12/18 06:31:39;;;;;;;8.60;3.10;;;10.50;99.90;;;;;;5115761;27;20223;-65
2021/12/18 06:34:25;;;;;;;4.87;2.50;;;10.40;99.90;;;;;;5121746;27;20274;-64
2021/12/18 06:37:12;;;;;;;5.27;2.50;;;10.40;99.90;;;;;;5113545;27;20264;-64
2021/12/18 06:39:59;;;;;;;6.80;3.13;;;10.40;99.90;;;;;;5120437;27;20192;-65
2021/12/18 06:42:45;;;;;;;5.47;2.83;;;10.50;99.90;;;;;;5113421;27;20180;-68
2021/12/18 06:45:32;;;;;;;8.67;2.83;;;10.50;99.90;;;;;;5103187;27;20193;-65
2021/12/18 06:48:19;;;;;;;3.90;2.33;;;10.50;99.90;;;;;;5123984;27;20271;-63
2021/12/18 06:51:06;;;;;;;6.23;2.70;;;10.60;99.90;;;;;;5120709;27;20210;-65
2021/12/18 06:53:53;;;;;;;6.03;2.43;;;10.70;99.90;;;;;;5112549;27;20668;-65
2021/12/18 06:56:40;;;;;;;5.63;2.57;;;10.70;99.90;;;;;;5123755;27;20184;-67
2021/12/18 06:59:26;;;;;;;8.13;2.47;;;10.80;99.90;;;;;;5107892;27;20199;-65
2021/12/18 07:02:13;;;;;;;13.07;3.53;;;10.90;99.90;;;;;;5119687;27;20271;-64
2021/12/18 07:05:00;;;;;;;7.23;3.10;;;10.90;99.90;;;;;;5120526;27;20189;-66
2021/12/18 07:07:47;;;;;;;5.70;2.30;;;11.00;99.90;;;;;;5092674;27;20259;-66
2021/12/18 07:10:35;;;;;;;4.37;2.37;;;11.00;99.90;;;;;;5120487;27;20313;-63
2021/12/18 07:13:22;;;;;;;4.47;2.60;;;11.10;99.90;;;;;;5122835;27;20172;-66
2021/12/18 07:16:09;;;;;;;7.53;2.50;;;11.10;99.90;;;;;;5118823;27;20447;-65
2021/12/18 07:18:56;;;;;;;3.20;2.27;;;11.20;99.90;;;;;;5120377;27;20199;-65
2021/12/18 07:21:43;;;;;;;5.97;2.57;;;11.20;99.90;;;;;;5112357;27;20978;-66
2021/12/18 07:24:30;;;;;;;8.70;2.57;;;11.20;99.90;;;;;;5101793;27;20229;-64
2021/12/18 07:27:17;;;;;;;8.30;2.70;;;11.30;99.90;;;;;;5114700;27;20212;-65
2021/12/18 07:30:05;;;;;;;3.73;2.57;;;11.30;99.90;;;;;;5121539;27;20229;-66
2021/12/18 07:32:52;;;;;;;6.17;2.40;;;11.40;99.90;;;;;;5122550;27;20431;-66
2021/12/18 07:35:39;;;;;;;10.03;2.30;;;11.50;99.90;;;;;;5121171;27;20485;-67
2021/12/18 07:38:26;;;;;;;4.00;2.30;;;11.50;99.90;;;;;;5121812;27;20591;-67
2021/12/18 07:41:13;;;;;;;6.20;2.50;;;11.50;99.90;;;;;;5113705;27;20193;-67
2021/12/18 07:44:00;;;;;;;6.57;2.40;;;11.50;99.90;;;;;;5102626;28;20595;-67
2021/12/18 07:46:46;;;;;;;6.43;2.40;;;11.50;99.90;;;;;;5103246;28;20193;-66
2021/12/18 07:49:33;;;;;;;8.10;2.87;;;11.60;99.90;;;;;;5106490;27;20189;-68
2021/12/18 07:52:21;;;;;;;6.07;2.73;;;11.60;99.90;;;;;;5121563;27;20185;-68
2021/12/18 07:55:08;;;;;;;4.87;2.43;;;11.60;99.90;;;;;;5113115;27;20192;-66
2021/12/18 07:57:55;;;;;;;6.47;2.60;;;11.70;99.90;;;;;;5114311;27;20191;-67
2021/12/18 08:00:41;;;;;;;7.33;2.60;;;11.70;99.90;;;;;;5117381;27;20181;-66
2021/12/18 08:03:28;;;;;;;7.20;3.10;;;11.70;99.90;;;;;;5109462;27;20265;-67
2021/12/18 08:06:16;;;;;;;6.23;2.53;;;11.80;99.90;;;;;;5103832;27;20633;-65
2021/12/18 08:09:03;;;;;;;5.03;2.63;;;11.80;99.90;;;;;;5102932;27;20211;-65
2021/12/18 08:11:50;;;;;;;7.10;2.43;;;11.80;99.90;;;;;;5102272;28;20185;-65
2021/12/18 08:14:36;;;;;;;4.90;2.60;;;11.90;99.90;;;;;;5120171;28;20219;-62
2021/12/18 08:17:24;;;;;;;5.90;2.80;;;11.90;99.90;;;;;;5105116;28;20215;-63
2021/12/18 08:20:12;;;;;;;10.33;2.53;;;12.00;99.90;;;;;;5116582;28;20271;-63
2021/12/18 08:23:00;;;;;;;8.07;2.60;;;12.10;99.90;;;;;;5105348;28;20192;-63
2021/12/18 08:25:46;;;;;;;8.17;2.93;;;12.10;99.90;;;;;;5112252;27;20188;-64
2021/12/18 08:28:33;;;;;;;4.50;2.27;;;12.10;99.90;;;;;;5110288;28;20197;-64
2021/12/18 08:31:20;;;;;;;7.90;3.00;;;12.20;99.90;;;;;;5117352;28;20644;-64
2021/12/18 08:34:06;;;;;;;5.03;2.60;;;12.30;99.90;;;;;;5119889;28;20192;-66
2021/12/18 08:36:53;;;;;;;6.13;2.50;;;12.40;99.90;;;;;;5119277;27;20191;-63
2021/12/18 08:39:40;;;;;;;3.40;2.30;;;12.40;99.90;;;;;;5122505;27;20193;-66
2021/12/18 08:42:27;;;;;;;6.83;2.50;;;12.30;99.90;;;;;;5121870;27;20272;-63
2021/12/18 08:45:15;;;;;;;3.87;2.50;;;12.20;99.90;;;;;;5124660;27;20218;-66
2021/12/18 08:48:02;;;;;;;6.13;2.83;;;12.10;99.90;;;;;;5119437;27;20216;-67
2021/12/18 08:50:48;;;;;;;8.57;2.60;;;12.10;99.90;;;;;;5120884;27;20663;-67
2021/12/18 08:53:35;;;;;;;7.23;2.87;;;12.00;99.90;;;;;;5122563;27;20177;-66
2021/12/18 08:56:22;;;;;;;6.13;2.90;;;12.00;99.90;;;;;;5095524;27;20710;-66
2021/12/18 08:59:08;;;;;;;7.30;3.20;;;11.90;99.90;;;;;;5122610;27;20535;-66
2021/12/18 09:01:55;;;;;;;7.53;3.20;;;11.90;99.90;;;;;;5125360;27;21027;-66
2021/12/18 09:04:42;;;;;;;7.63;3.40;;;11.90;99.90;;;;;;5123548;27;20184;-64
2021/12/18 09:07:29;;;;;;;10.20;3.10;;;11.80;99.90;;;;;;5109790;27;20216;-65
2021/12/18 09:10:18;;;;;;;11.77;3.77;;;11.80;99.90;;;;;;5123305;27;20208;-67
2021/12/18 09:13:05;;;;;;;7.20;3.27;;;11.70;99.90;;;;;;5126165;27;20207;-67
2021/12/18 09:15:52;;;;;;;6.07;3.40;;;11.60;99.90;;;;;;5118517;27;20173;-67
2021/12/18 09:18:38;;;;;;;11.30;3.53;;;11.50;99.90;;;;;;5128571;27;20233;-66
2021/12/18 09:21:25;;;;;;;6.07;3.40;;;11.50;99.90;;;;;;5124793;27;20192;-65
2021/12/18 09:24:12;;;;;;;4.20;2.90;;;11.50;99.90;;;;;;5106450;27;20239;-66
2021/12/18 09:26:59;;;;;;;8.83;3.50;;;11.60;99.90;;;;;;5115314;27;20196;-67
2021/12/18 09:29:46;;;;;;;5.00;3.00;;;11.60;99.90;;;;;;5106994;27;20195;-66
2021/12/18 09:32:33;;;;;;;7.53;3.20;;;11.70;99.90;;;;;;5123107;27;20591;-64
2021/12/18 09:35:21;;;;;;;4.70;3.20;;;11.70;99.90;;;;;;5106658;28;20209;-65
2021/12/18 09:38:08;;;;;;;8.13;3.33;;;11.80;99.90;;;;;;5122715;27;20211;-67
2021/12/18 09:40:59;;;;;;;3.80;3.23;;;11.70;99.90;;;;;;5115112;27;20185;-67
2021/12/18 09:43:47;;;;;;;6.50;3.57;;;11.80;99.90;;;;;;5123462;27;20196;-66
2021/12/18 09:46:34;;;;;;;6.37;2.90;;;11.80;99.90;;;;;;5135566;27;20741;-66
2021/12/18 09:49:21;;;;;;;8.13;3.57;;;11.80;99.90;;;;;;5121857;27;20216;-67
2021/12/18 09:52:08;;;;;;;10.20;3.30;;;11.80;99.90;;;;;;5123472;27;20193;-65
2021/12/18 09:54:59;;;;;;;6.53;3.37;;;11.80;99.90;;;;;;5105900;27;20568;-66
2021/12/18 09:57:47;;;;;;;13.37;3.63;;;11.90;99.90;;;;;;5116430;27;20188;-67
2021/12/18 10:00:34;;;;;;;6.70;3.40;;;11.80;99.90;;;;;;5118232;27;20208;-66
2021/12/18 10:03:21;;;;;;;6.57;3.30;;;11.80;99.90;;;;;;5105943;27;20211;-66
2021/12/18 10:06:44;;;;;;;4.53;3.20;;;11.80;99.90;;;;;;5122405;27;20218;-67
2021/12/18 10:09:35;;;;;;;5.43;3.30;;;11.80;99.90;;;;;;5121849;27;20190;-68
2021/12/18 10:12:27;;;;;;;6.77;3.83;;;11.90;99.90;;;;;;5120817;27;20189;-67
2021/12/18 10:15:17;;;;;;;7.23;4.20;;;11.90;99.90;;;;;;5115089;27;20177;-66
2021/12/18 10:18:11;;;;;;;6.77;3.23;;;11.90;99.90;;;;;;5105150;27;20246;-67
2021/12/18 10:21:16;;;;;;;12.07;3.53;;;11.90;99.90;;;;;;5122020;27;20220;-67
2021/12/18 10:24:17;;;;;;;5.37;3.13;;;11.80;99.90;;;;;;5120617;27;20402;-66
2021/12/18 10:27:23;;;;;;;5.90;3.37;;;11.80;99.90;;;;;;5103498;27;20533;-67
2021/12/18 10:30:20;;;;;;;6.53;3.73;;;11.80;99.90;;;;;;5121095;27;20189;-67
2021/12/18 10:33:11;;;;;;;6.50;3.90;;;11.80;99.90;;;;;;5122072;27;20188;-68
2021/12/18 10:36:00;;;;;;;4.70;3.40;;;11.90;99.90;;;;;;5105788;27;20722;-65
2021/12/18 10:38:55;;;;;;;7.00;4.47;;;11.90;99.90;;;;;;5111882;27;20192;-65
2021/12/18 10:41:41;;;;;;;5.10;3.40;;;12.00;99.90;;;;;;5107753;27;20655;-67
2021/12/18 10:44:31;;;;;;;7.80;3.00;;;12.00;99.90;;;;;;5120713;27;20603;-67
2021/12/18 10:47:18;;;;;;;8.33;2.97;;;12.10;99.90;;;;;;5119476;27;20523;-66
2021/12/18 10:50:20;;;;;;;3.47;2.50;;;13.00;99.90;;;;;;5118449;27;20222;-66
2021/12/18 10:53:18;;;;;;;5.40;2.63;;;13.10;99.90;;;;;;5101965;27;20239;-67
2021/12/18 10:56:05;;;;;;;5.43;2.63;;;13.70;99.90;;;;;;5117846;27;20177;-67
2021/12/18 10:58:53;;;;;;;5.57;2.53;;;13.80;99.90;;;;;;5097889;27;20626;-65
2021/12/18 11:01:48;;;;;;;5.03;2.37;;;13.90;99.90;;;;;;5114979;27;20201;-67
2021/12/18 11:04:39;;;;;;;3.97;2.20;;;14.20;99.90;;;;;;5119287;27;20193;-66
2021/12/18 11:07:30;;;;;;;4.93;2.60;;;14.30;99.90;;;;;;5119389;27;20188;-66
2021/12/18 11:10:43;;;;;;;4.83;2.20;;;14.40;99.90;;;;;;5118729;27;22270;-65
2021/12/18 11:13:40;;;;;;;5.60;2.33;;;14.40;99.90;;;;;;5117947;27;20629;-68
2021/12/18 11:16:28;;;;;;;6.90;2.30;;;14.30;99.90;;;;;;5112084;27;20600;-65
2021/12/18 11:19:19;;;;;;;3.90;2.73;;;14.20;99.90;;;;;;5118948;27;20280;-67
2021/12/18 11:22:17;;;;;;;8.47;2.60;;;13.90;99.90;;;;;;5119975;27;20249;-67
2021/12/18 11:25:12;;;;;;;3.97;2.53;;;13.60;99.90;;;;;;5120375;27;20185;-65
2021/12/18 11:28:00;;;;;;;5.90;2.77;;;13.50;99.90;;;;;;5116286;27;20557;-67
2021/12/18 11:30:51;;;;;;;4.37;2.30;;;13.50;99.90;;;;;;5107541;27;20216;-66
2021/12/18 11:33:39;;;;;;;14.37;2.47;;;13.40;99.90;;;;;;5119605;27;20679;-67
2021/12/18 11:36:26;;;;;;;5.27;2.50;;;13.30;99.90;;;;;;5087373;28;20196;-67
2021/12/18 11:39:18;;;;;;;10.10;2.50;;;13.30;99.90;;;;;;5096839;27;20234;-66
2021/12/18 11:42:06;;;;;;;3.77;2.40;;;13.30;99.90;;;;;;5120502;27;20238;-67
2021/12/18 11:44:58;;;;;;;5.80;2.67;;;13.50;99.90;;;;;;5114189;27;20255;-66
2021/12/18 11:47:56;;;;;;;4.43;2.60;;;13.60;99.90;;;;;;5118605;27;20363;-68
2021/12/18 11:50:45;;;;;;;6.67;2.60;;;13.70;99.90;;;;;;5103314;27;20203;-65
2021/12/18 11:53:36;;;;;;;5.73;2.57;;;13.70;99.90;;;;;;5106928;27;20203;-67
2021/12/18 11:56:24;;;;;;;4.90;2.43;;;13.70;99.90;;;;;;5116371;27;20772;-66
2021/12/18 11:59:11;;;;;;;3.00;2.20;;;13.70;99.90;;;;;;5118646;27;20279;-67
2021/12/18 12:01:58;;;;;;;4.83;2.67;;;13.70;99.90;;;;;;5096520;28;20192;-67
2021/12/18 12:05:05;;;;;;;5.10;2.70;;;13.70;99.90;;;;;;5120961;27;20208;-65
2021/12/18 12:08:29;;;;;;;5.33;2.17;;;13.60;99.90;;;;;;5117609;27;20276;-66
2021/12/18 12:11:27;;;;;;;4.60;2.37;;;13.60;99.90;;;;;;5119500;27;20539;-67
2021/12/18 12:14:14;;;;;;;3.07;2.10;;;13.60;99.90;;;;;;5119821;28;20189;-67
2021/12/18 12:17:02;;;;;;;4.53;2.70;;;13.60;99.90;;;;;;5119663;27;20709;-67
2021/12/18 12:19:57;;;;;;;4.80;2.40;;;13.70;99.90;;;;;;5112433;28;20227;-66
2021/12/18 12:22:53;;;;;;;5.03;2.17;;;13.70;99.90;;;;;;5113666;28;20468;-67
2021/12/18 12:25:51;;;;;;;6.13;2.33;;;13.60;99.90;;;;;;5114021;28;20557;-65
2021/12/18 12:28:52;;;;;;;6.87;2.43;;;13.60;99.90;;;;;;5116598;28;20192;-67
2021/12/18 12:32:07;;;;;;;6.50;2.87;;;13.60;99.90;;;;;;5112929;28;20184;-67
2021/12/18 12:35:10;;;;;;;4.70;2.20;;;13.80;99.90;;;;;;5118243;28;20208;-66
2021/12/18 12:37:57;;;;;;;5.73;2.63;;;13.90;99.90;;;;;;5100496;28;20189;-68
2021/12/18 12:40:44;;;;;;;7.83;2.50;;;13.90;99.90;;;;;;5103023;28;20200;-68
2021/12/18 12:43:40;;;;;;;6.50;2.20;;;13.80;99.90;;;;;;5105906;28;20608;-68
2021/12/18 12:46:28;;;;;;;5.73;2.33;;;13.70;99.90;;;;;;5118313;28;20276;-66
2021/12/18 12:49:20;;;;;;;3.50;2.30;;;13.50;99.90;;;;;;5110145;28;20202;-66
2021/12/18 12:52:14;;;;;;;6.97;2.43;;;13.50;99.90;;;;;;5104117;28;20706;-66
2021/12/18 12:55:14;;;;;;;5.13;2.60;;;13.40;99.90;;;;;;5117341;28;20192;-68
2021/12/18 12:58:03;;;;;;;5.10;2.77;;;13.40;99.90;;;;;;5117473;28;20564;-67
2021/12/18 13:00:53;;;;;;;4.17;2.60;;;13.40;99.90;;;;;;5101587;28;20656;-67
2021/12/18 13:03:48;;;;;;;3.50;2.80;;;13.30;99.90;;;;;;5107309;27;20184;-67
2021/12/18 13:06:35;;;;;;;6.83;3.03;;;13.30;99.90;;;;;;5118216;28;20229;-68
2021/12/18 13:09:21;;;;;;;5.90;2.47;;;13.30;99.90;;;;;;5117651;27;20243;-66
2021/12/18 13:12:09;;;;;;;5.47;2.83;;;13.20;99.90;;;;;;5118089;27;20220;-67
2021/12/18 13:14:56;;;;;;;7.17;3.60;;;13.20;99.90;;;;;;5113408;27;20184;-66
2021/12/18 13:17:43;;;;;;;5.77;3.07;;;13.10;99.90;;;;;;5117694;27;20235;-66
2021/12/18 13:20:40;;;;;;;5.67;2.80;;;13.10;99.90;;;;;;5114744;28;20186;-67
2021/12/18 13:23:38;;;;;;;7.33;3.00;;;13.00;99.90;;;;;;5117635;27;20188;-66
2021/12/18 13:26:32;;;;;;;4.60;3.00;;;13.00;99.90;;;;;;5108531;27;20396;-67
2021/12/18 13:29:24;;;;;;;8.53;3.20;;;13.00;99.90;;;;;;5116834;27;20999;-67
2021/12/18 13:32:11;;;;;;;6.90;2.97;;;12.90;99.90;;;;;;5124225;27;20663;-67
2021/12/18 13:34:58;;;;;;;6.80;2.97;;;12.90;99.90;;;;;;5118686;27;20204;-65
2021/12/18 13:38:07;;;;;;;6.53;3.10;;;12.80;99.90;;;;;;5121738;27;20571;-67
2021/12/18 13:40:54;;;;;;;8.37;3.27;;;12.80;99.90;;;;;;5118826;27;20189;-68
2021/12/18 13:43:43;;;;;;;5.83;3.20;;;12.80;99.90;;;;;;5112843;27;20890;-67
2021/12/18 13:46:31;;;;;;;4.37;3.37;;;12.80;99.90;;;;;;5114528;27;20189;-68
2021/12/18 13:49:18;;;;;;;7.80;3.43;;;12.80;99.90;;;;;;5122899;27;20628;-68
2021/12/18 13:52:05;;;;;;;5.53;3.37;;;12.80;99.90;;;;;;5101281;27;20192;-67
2021/12/18 13:54:52;;;;;;;13.33;3.10;;;12.80;99.90;;;;;;5108770;27;20653;-67
2021/12/18 13:57:39;;;;;;;4.77;3.17;;;12.80;99.90;;;;;;5124223;27;20205;-67
2021/12/18 14:00:25;;;;;;;7.63;4.00;;;12.70;99.90;;;;;;5116848;27;20214;-66
2021/12/18 14:03:31;;;;;;;5.80;3.50;;;12.70;99.90;;;;;;5102652;27;20191;-67
2021/12/18 14:06:36;;;;;;;4.90;3.40;;;12.70;99.90;;;;;;5112013;27;20461;-66
2021/12/18 14:09:27;;;;;;;5.07;3.37;;;12.70;99.90;;;;;;5117110;27;20314;-67
2021/12/18 14:12:18;;;;;;;4.33;3.37;;;12.70;99.90;;;;;;5121229;27;20185;-67
2021/12/18 14:15:16;;;;;;;6.73;3.20;;;12.70;99.90;;;;;;5115395;27;20197;-67
2021/12/18 14:18:22;;;;;;;4.70;2.97;;;12.70;99.90;;;;;;5108288;27;20753;-66
2021/12/18 14:21:09;;;;;;;7.67;3.27;;;12.60;99.90;;;;;;5116623;27;20497;-66
2021/12/18 14:24:00;;;;;;;6.30;3.33;;;12.60;99.90;;;;;;5097824;27;20295;-66
2021/12/18 14:27:07;;;;;;;6.60;3.60;;;12.60;99.90;;;;;;5120805;27;20184;-66
2021/12/18 14:29:54;;;;;;;4.27;3.67;;;12.50;99.90;;;;;;5122279;27;20172;-66
2021/12/18 14:32:43;;;;;;;7.80;3.47;;;12.50;99.90;;;;;;5103722;27;20284;-67
2021/12/18 14:35:30;;;;;;;6.53;3.37;;;12.40;99.90;;;;;;5102077;28;20193;-66
2021/12/18 14:38:19;;;;;;;7.83;3.40;;;12.40;99.90;;;;;;5116850;27;20184;-67
2021/12/18 14:41:05;;;;;;;7.33;3.20;;;12.40;99.90;;;;;;5118715;27;20177;-67
2021/12/18 14:44:05;;;;;;;5.17;3.27;;;12.30;99.90;;;;;;5102687;27;20304;-66
2021/12/18 14:47:19;;;;;;;7.83;3.43;;;12.20;99.90;;;;;;5087669;28;20173;-67
2021/12/18 14:50:41;;;;;;;3.87;3.03;;;12.20;99.90;;;;;;5103102;28;20188;-67
2021/12/18 14:53:28;;;;;;;9.03;3.40;;;12.10;99.90;;;;;;5088388;27;20219;-67
2021/12/18 14:56:17;;;;;;;5.37;3.00;;;12.00;99.90;;;;;;5105418;27;20184;-67
2021/12/18 14:59:17;;;;;;;5.60;2.67;;;11.80;99.90;;;;;;5100557;28;20232;-67
2021/12/18 15:02:04;;;;;;;8.30;2.90;;;11.80;99.90;;;;;;5100438;28;20193;-67
2021/12/18 15:05:10;;;;;;;6.63;2.83;;;11.70;99.90;;;;;;5102621;27;20189;-67
2021/12/18 15:08:05;;;;;;;3.23;2.80;;;11.60;99.90;;;;;;5084505;28;20224;-67
2021/12/18 15:10:57;;;;;;;3.90;2.63;;;11.50;99.90;;;;;;5101414;28;20584;-67
2021/12/18 15:13:57;;;;;;;3.53;2.70;;;11.50;99.90;;;;;;5094264;28;20260;-66
2021/12/18 15:16:58;;;;;;;7.40;3.30;;;11.40;99.90;;;;;;5097100;27;20180;-68
2021/12/18 15:19:45;;;;;;;4.77;2.17;;;11.30;99.90;;;;;;5102771;28;20260;-66
2021/12/18 15:22:31;;;;;;;2.80;1.97;;;11.20;99.90;;;;;;5106005;27;20190;-66
2021/12/18 15:25:18;;;;;;;4.03;2.50;;;11.20;99.90;;;;;;5068492;28;20248;-66